Time;durP1;ratioP1;P1;durP2;ratioP2;P2;SDS_P1;SDS_P2;PMS_P1;PMS_P2;Temp;Humidity;BMP_temperature;BMP_pressure;BME280_temperature;BME280_humidity;BME280_pressure;Samples;Min_cycle;Max_cycle;Signal;HPM_P1;HPM_P2
2022/08/08 00:00:10;;;;;;;1.15;0.55;;;20.00;58.00;;;;;;5073370;28;20462;-79
2022/08/08 00:03:05;;;;;;;1.27;0.60;;;19.90;58.20;;;;;;5085461;28;20098;-79
2022/08/08 00:05:59;;;;;;;1.10;0.50;;;19.90;58.40;;;;;;5049645;28;20436;-79
2022/08/08 00:08:50;;;;;;;0.63;0.60;;;19.70;58.80;;;;;;5093326;28;20107;-79
2022/08/08 00:11:33;;;;;;;1.30;0.55;;;19.60;59.10;;;;;;5075110;28;20040;-79
2022/08/08 00:14:33;;;;;;;1.75;0.73;;;19.60;59.20;;;;;;5084175;28;20055;-83
2022/08/08 00:17:13;;;;;;;0.55;0.52;;;19.50;59.50;;;;;;5088336;28;20020;-83
2022/08/08 00:19:49;;;;;;;2.15;0.60;;;19.50;60.00;;;;;;5087908;28;20020;-78
2022/08/08 00:22:21;;;;;;;1.13;0.65;;;19.40;60.10;;;;;;5082635;28;20020;-79
2022/08/08 00:24:56;;;;;;;1.10;0.60;;;19.30;60.00;;;;;;5077298;28;20060;-79
2022/08/08 00:27:25;;;;;;;1.23;0.60;;;19.30;60.00;;;;;;5088106;28;20150;-78
2022/08/08 00:30:00;;;;;;;1.67;0.70;;;19.30;60.30;;;;;;5078079;28;20084;-77
2022/08/08 00:32:31;;;;;;;1.08;0.70;;;19.30;60.10;;;;;;5080412;28;20591;-78
2022/08/08 00:35:38;;;;;;;0.85;0.57;;;19.40;60.30;;;;;;5076375;28;20160;-77
2022/08/08 00:38:07;;;;;;;2.13;0.70;;;19.40;60.40;;;;;;5079244;28;20024;-78
2022/08/08 00:41:10;;;;;;;1.20;0.60;;;19.40;60.50;;;;;;5078831;28;20056;-79
2022/08/08 00:44:00;;;;;;;3.90;0.90;;;19.40;61.40;;;;;;5076638;28;20079;-78
2022/08/08 00:46:34;;;;;;;1.92;0.90;;;19.40;61.80;;;;;;5092885;28;20031;-78
2022/08/08 00:49:06;;;;;;;1.92;0.82;;;19.40;62.90;;;;;;5074543;28;20024;-88
2022/08/08 00:51:55;;;;;;;2.40;0.88;;;19.40;63.10;;;;;;5075529;28;20020;-79
2022/08/08 00:54:58;;;;;;;0.77;0.70;;;19.30;64.40;;;;;;5080897;28;20036;-78
2022/08/08 00:58:03;;;;;;;2.25;0.80;;;19.20;64.90;;;;;;5088553;28;20032;-78
2022/08/08 01:00:38;;;;;;;0.95;0.68;;;19.20;65.30;;;;;;5083485;28;20044;-78
2022/08/08 01:03:42;;;;;;;3.00;0.60;;;19.20;65.50;;;;;;5075804;28;20021;-79
2022/08/08 01:06:29;;;;;;;1.83;0.68;;;19.20;66.10;;;;;;5034934;28;20385;-78
2022/08/08 01:09:14;;;;;;;2.53;0.90;;;19.20;66.40;;;;;;5091170;28;20024;-79
2022/08/08 01:12:01;;;;;;;2.72;0.63;;;19.30;66.70;;;;;;5080758;28;20043;-78
2022/08/08 01:15:18;;;;;;;2.05;0.55;;;19.40;66.60;;;;;;5095438;28;20043;-79
2022/08/08 01:18:02;;;;;;;1.33;0.60;;;19.30;66.90;;;;;;5075336;28;20025;-79
2022/08/08 01:20:50;;;;;;;1.40;0.60;;;19.10;67.10;;;;;;5087264;28;20039;-79
2022/08/08 01:23:51;;;;;;;2.30;0.60;;;19.00;66.30;;;;;;5076003;28;20031;-78
2022/08/08 01:26:40;;;;;;;0.73;0.50;;;18.80;66.30;;;;;;5004637;28;20120;-79
2022/08/08 01:29:12;;;;;;;2.35;0.80;;;18.60;66.50;;;;;;5074880;28;20031;-79
2022/08/08 01:31:56;;;;;;;0.60;0.50;;;18.60;66.70;;;;;;5075279;28;20025;-79
2022/08/08 01:34:46;;;;;;;0.85;0.68;;;18.40;67.90;;;;;;5074330;28;20055;-79
2022/08/08 01:37:49;;;;;;;0.60;0.55;;;18.30;68.40;;;;;;5076099;28;20064;-78
2022/08/08 01:40:41;;;;;;;1.33;0.77;;;18.10;67.90;;;;;;5084513;28;20098;-78
2022/08/08 01:43:09;;;;;;;0.80;0.50;;;18.10;67.50;;;;;;5091226;28;20059;-79
2022/08/08 01:45:56;;;;;;;0.63;0.50;;;18.00;67.00;;;;;;5075059;28;20466;-78
2022/08/08 01:48:36;;;;;;;3.22;0.88;;;17.90;66.90;;;;;;5074392;28;20081;-78
2022/08/08 01:51:04;;;;;;;3.05;0.70;;;17.80;66.70;;;;;;5074593;28;20443;-82
2022/08/08 01:53:53;;;;;;;3.90;0.82;;;17.90;66.50;;;;;;5074983;28;20081;-78
2022/08/08 01:56:36;;;;;;;1.40;0.80;;;17.80;66.70;;;;;;5074082;28;20105;-79
2022/08/08 01:59:26;;;;;;;2.83;0.80;;;17.80;66.80;;;;;;5074100;28;20125;-85
2022/08/08 02:02:21;;;;;;;0.95;0.70;;;17.70;67.10;;;;;;5075681;28;20047;-78
2022/08/08 02:05:33;;;;;;;1.10;0.70;;;17.70;66.90;;;;;;5074902;28;20028;-78
2022/08/08 02:08:48;;;;;;;0.73;0.60;;;17.60;67.00;;;;;;5074645;28;20029;-85
2022/08/08 02:11:29;;;;;;;0.80;0.80;;;17.70;67.00;;;;;;5049928;28;20043;-78
2022/08/08 02:13:59;;;;;;;2.17;0.75;;;17.70;66.90;;;;;;5074459;28;20458;-78
2022/08/08 02:16:39;;;;;;;0.93;0.80;;;17.60;67.10;;;;;;5073373;28;20485;-78
2022/08/08 02:19:10;;;;;;;1.13;0.60;;;17.70;67.20;;;;;;5074743;28;20027;-78
2022/08/08 02:25:23;;;;;;;2.08;0.70;;;17.60;67.70;;;;;;5057652;28;20056;-77
2022/08/08 02:28:00;;;;;;;1.65;1.05;;;17.50;68.30;;;;;;5055965;28;20033;-78
2022/08/08 02:31:01;;;;;;;1.17;0.65;;;17.50;68.80;;;;;;5072620;28;20127;-77
2022/08/08 02:33:58;;;;;;;1.17;0.60;;;17.60;69.30;;;;;;5055962;28;20462;-78
2022/08/08 02:36:35;;;;;;;1.35;0.73;;;17.50;69.70;;;;;;5051795;28;20080;-76
2022/08/08 02:39:35;;;;;;;2.03;0.80;;;17.50;69.90;;;;;;5052075;28;20475;-85
2022/08/08 02:42:32;;;;;;;3.17;0.73;;;17.50;70.10;;;;;;5055054;28;20032;-85
2022/08/08 02:45:23;;;;;;;1.58;0.85;;;17.50;70.60;;;;;;5072393;28;20044;-83
2022/08/08 02:48:10;;;;;;;2.17;0.80;;;17.40;71.10;;;;;;5025405;28;20071;-76
2022/08/08 02:50:54;;;;;;;1.40;0.80;;;17.50;70.80;;;;;;5035623;28;20074;-76
2022/08/08 02:53:37;;;;;;;0.88;0.73;;;17.40;70.80;;;;;;5051592;28;20090;-77
2022/08/08 02:56:21;;;;;;;2.88;0.75;;;17.30;70.70;;;;;;5063483;28;20546;-79
2022/08/08 02:59:50;;;;;;;1.73;0.80;;;17.40;70.50;;;;;;5093507;28;20040;-78
2022/08/08 03:02:44;;;;;;;1.83;0.80;;;17.40;70.40;;;;;;5093022;28;20028;-78
2022/08/08 03:05:46;;;;;;;2.40;0.77;;;17.40;70.20;;;;;;5092952;28;20123;-78
2022/08/08 03:08:27;;;;;;;;;;;17.30;69.80;;;;;;5093356;28;20040;-79
2022/08/08 03:11:11;;;;;;;2.80;0.90;;;17.30;69.70;;;;;;5079165;28;19935;-78
2022/08/08 03:14:00;;;;;;;1.77;0.63;;;17.40;69.20;;;;;;5072884;28;20074;-79
2022/08/08 03:16:48;;;;;;;1.10;0.63;;;17.30;68.80;;;;;;5072786;28;20039;-79
2022/08/08 03:19:39;;;;;;;3.00;0.90;;;17.30;68.20;;;;;;5072547;28;20048;-79
2022/08/08 03:22:05;;;;;;;2.50;0.70;;;17.40;68.10;;;;;;5072770;28;20062;-78
2022/08/08 03:24:31;;;;;;;1.20;0.73;;;17.30;68.20;;;;;;5072877;28;20469;-78
2022/08/08 03:27:22;;;;;;;1.80;0.70;;;17.30;68.40;;;;;;5072503;28;20045;-78
2022/08/08 03:29:52;;;;;;;1.37;0.60;;;17.30;68.20;;;;;;5072716;28;20082;-78
2022/08/08 03:35:05;;;;;;;1.00;0.60;;;17.20;68.40;;;;;;5089638;28;20055;-77
2022/08/08 03:37:33;;;;;;;1.42;0.80;;;17.20;67.80;;;;;;5092799;28;20484;-78
2022/08/08 03:40:00;;;;;;;2.25;0.70;;;17.20;68.10;;;;;;5092826;28;20024;-83
2022/08/08 03:42:26;;;;;;;1.02;0.60;;;17.10;68.10;;;;;;5092771;28;20051;-77
2022/08/08 03:44:52;;;;;;;0.77;0.60;;;17.00;68.10;;;;;;5077646;28;20457;-78
2022/08/08 03:47:21;;;;;;;2.25;0.57;;;17.00;68.10;;;;;;5072450;28;20020;-78
2022/08/08 03:49:48;;;;;;;0.98;0.50;;;16.80;68.50;;;;;;5072550;28;20025;-76
2022/08/08 03:52:14;;;;;;;1.10;0.80;;;16.80;68.50;;;;;;5081716;28;20051;-77
2022/08/08 03:54:45;;;;;;;0.88;0.50;;;16.70;68.70;;;;;;5093520;28;20122;-78
2022/08/08 03:57:15;;;;;;;2.10;1.23;;;16.60;68.90;;;;;;5093270;28;20060;-78
2022/08/08 03:59:40;;;;;;;0.98;0.70;;;16.70;68.80;;;;;;5087316;28;20025;-78
2022/08/08 04:02:18;;;;;;;0.70;0.70;;;16.70;68.70;;;;;;5071816;28;20028;-78
2022/08/08 04:04:45;;;;;;;1.20;0.70;;;16.70;68.80;;;;;;5086273;28;20086;-78
2022/08/08 04:07:11;;;;;;;0.80;0.70;;;16.60;68.80;;;;;;5074576;28;20036;-78
2022/08/08 04:09:37;;;;;;;2.42;0.70;;;16.60;69.00;;;;;;5087213;28;20016;-78
2022/08/08 04:12:03;;;;;;;2.17;0.90;;;16.60;69.00;;;;;;5079638;28;20020;-79
2022/08/08 04:14:29;;;;;;;4.78;0.63;;;16.60;69.00;;;;;;5092100;28;20435;-77
2022/08/08 04:16:55;;;;;;;2.47;0.60;;;16.50;68.90;;;;;;5092044;28;20024;-76
2022/08/08 04:19:21;;;;;;;1.92;0.70;;;16.60;68.80;;;;;;5091837;28;20017;-77
2022/08/08 04:21:46;;;;;;;2.17;0.80;;;16.60;68.60;;;;;;5092141;28;20028;-77
2022/08/08 04:24:12;;;;;;;1.08;0.60;;;16.60;68.50;;;;;;5092905;28;20032;-77
2022/08/08 04:26:38;;;;;;;1.48;0.60;;;16.60;68.30;;;;;;5092021;28;20039;-76
2022/08/08 04:29:04;;;;;;;1.02;0.55;;;16.60;68.30;;;;;;5092829;28;20025;-78
2022/08/08 04:31:30;;;;;;;2.83;0.65;;;16.50;68.50;;;;;;5091993;28;20039;-78
2022/08/08 04:33:55;;;;;;;0.85;0.70;;;16.50;68.70;;;;;;5084184;28;20432;-78
2022/08/08 04:36:21;;;;;;;1.98;0.95;;;16.40;68.80;;;;;;5086848;28;20032;-78
2022/08/08 04:38:46;;;;;;;0.88;0.60;;;16.40;68.80;;;;;;5092273;28;20182;-77
2022/08/08 04:41:12;;;;;;;0.73;0.60;;;16.40;68.90;;;;;;5096567;28;20137;-77
2022/08/08 04:43:38;;;;;;;1.80;0.50;;;16.40;68.80;;;;;;5096248;28;20047;-77
2022/08/08 04:46:04;;;;;;;1.90;0.70;;;16.40;68.90;;;;;;5096928;28;20469;-81
2022/08/08 04:48:30;;;;;;;1.02;0.60;;;16.50;68.30;;;;;;5095657;28;20028;-76
2022/08/08 04:50:56;;;;;;;2.35;0.70;;;16.50;68.50;;;;;;5096801;28;20035;-76
2022/08/08 04:53:21;;;;;;;0.60;0.50;;;16.50;68.50;;;;;;5078093;28;20085;-76
2022/08/08 04:55:47;;;;;;;0.75;0.60;;;16.50;68.80;;;;;;5096812;28;20075;-77
2022/08/08 04:58:14;;;;;;;1.35;0.57;;;16.40;68.90;;;;;;5095190;28;20073;-76
2022/08/08 05:00:42;;;;;;;1.35;0.60;;;16.40;68.70;;;;;;5095048;28;20032;-77
2022/08/08 05:03:08;;;;;;;1.90;0.50;;;16.50;69.00;;;;;;5094310;28;20090;-78
2022/08/08 05:05:33;;;;;;;2.72;0.65;;;16.50;69.10;;;;;;5091923;28;20028;-77
2022/08/08 05:07:59;;;;;;;0.55;0.55;;;16.50;69.10;;;;;;5095314;28;20036;-81
2022/08/08 05:10:28;;;;;;;2.78;0.50;;;16.50;69.00;;;;;;5096391;28;20362;-78
2022/08/08 05:12:55;;;;;;;1.92;0.60;;;16.60;69.20;;;;;;5095736;28;20093;-78
2022/08/08 05:15:21;;;;;;;4.63;0.73;;;16.60;69.00;;;;;;5094919;28;20048;-77
2022/08/08 05:17:46;;;;;;;1.50;0.70;;;16.70;69.10;;;;;;5095569;28;20056;-78
2022/08/08 05:20:12;;;;;;;3.75;0.93;;;16.70;69.30;;;;;;5094926;28;20042;-78
2022/08/08 05:22:37;;;;;;;1.50;0.50;;;16.70;69.10;;;;;;5095192;28;20089;-76
2022/08/08 05:25:04;;;;;;;2.78;0.70;;;16.70;69.20;;;;;;5077535;28;20043;-82
2022/08/08 05:27:29;;;;;;;1.92;0.70;;;16.70;69.00;;;;;;5088927;28;20036;-77
2022/08/08 05:29:55;;;;;;;2.13;0.60;;;16.80;69.00;;;;;;5094923;28;20085;-78
2022/08/08 05:32:21;;;;;;;0.98;0.50;;;16.90;68.70;;;;;;5094319;28;20020;-78
2022/08/08 05:34:48;;;;;;;1.55;0.95;;;17.00;68.00;;;;;;5093871;28;20071;-76
2022/08/08 05:37:23;;;;;;;3.08;1.00;;;17.10;67.70;;;;;;5094848;28;20024;-77
2022/08/08 05:39:54;;;;;;;3.00;0.60;;;17.20;67.60;;;;;;5094364;28;20147;-77
2022/08/08 05:42:36;;;;;;;0.75;0.60;;;17.30;67.10;;;;;;5095294;28;20094;-77
2022/08/08 05:45:01;;;;;;;;;;;17.40;67.30;;;;;;5091871;28;20033;-79
2022/08/08 05:47:28;;;;;;;0.85;0.60;;;17.40;67.10;;;;;;5094082;28;19904;-77
2022/08/08 05:49:55;;;;;;;1.48;0.68;;;17.50;66.90;;;;;;5094319;28;20057;-76
2022/08/08 05:52:21;;;;;;;0.93;0.60;;;17.60;66.90;;;;;;5093610;28;20132;-77
2022/08/08 05:54:47;;;;;;;3.13;0.60;;;17.60;66.70;;;;;;5095359;28;20036;-79
2022/08/08 05:57:16;;;;;;;2.92;0.65;;;17.70;66.60;;;;;;5092163;28;20040;-81
2022/08/08 05:59:48;;;;;;;1.13;0.60;;;17.80;66.50;;;;;;5092641;28;20093;-79
2022/08/08 06:05:11;;;;;;;3.40;0.63;;;17.90;66.50;;;;;;5088464;28;20042;-83
2022/08/08 06:07:41;;;;;;;1.63;0.80;;;17.90;66.50;;;;;;5078809;28;20016;-81
2022/08/08 06:10:08;;;;;;;4.53;0.60;;;18.00;66.60;;;;;;5095389;28;20165;-81
2022/08/08 06:12:35;;;;;;;2.38;0.60;;;18.10;66.30;;;;;;5094720;28;20081;-81
2022/08/08 06:15:04;;;;;;;5.45;0.57;;;18.10;66.30;;;;;;5094050;28;20032;-82
2022/08/08 06:17:35;;;;;;;2.65;0.70;;;18.20;66.30;;;;;;5094466;28;20020;-81
2022/08/08 06:20:06;;;;;;;1.15;0.50;;;18.20;66.10;;;;;;5094267;28;20477;-82
2022/08/08 06:22:32;;;;;;;1.67;0.50;;;18.30;66.00;;;;;;5095410;28;20537;-80
2022/08/08 06:24:58;;;;;;;5.75;0.70;;;18.30;66.00;;;;;;5094534;28;20066;-81
2022/08/08 06:27:49;;;;;;;2.75;0.80;;;18.50;66.00;;;;;;5094935;28;20036;-83
2022/08/08 06:30:15;;;;;;;3.33;0.47;;;18.50;66.00;;;;;;5074847;28;20021;-78
2022/08/08 06:32:49;;;;;;;1.30;0.80;;;18.60;66.00;;;;;;5085339;28;20039;-80
2022/08/08 06:35:16;;;;;;;3.05;0.60;;;18.70;65.60;;;;;;5093388;28;20101;-79
2022/08/08 06:37:53;;;;;;;0.80;0.50;;;18.70;65.30;;;;;;5094167;28;20071;-82
2022/08/08 06:40:21;;;;;;;2.25;0.60;;;18.80;65.10;;;;;;5093807;28;20107;-80
2022/08/08 06:42:52;;;;;;;1.45;0.70;;;18.90;64.60;;;;;;5094165;28;20422;-86
2022/08/08 06:45:20;;;;;;;2.30;1.00;;;18.90;64.20;;;;;;5093576;28;20036;-83
2022/08/08 06:47:46;;;;;;;1.90;0.60;;;19.00;64.20;;;;;;5093780;28;20256;-81
2022/08/08 06:50:12;;;;;;;1.30;0.90;;;19.10;64.10;;;;;;5092514;28;20075;-83
2022/08/08 06:52:38;;;;;;;1.05;0.68;;;19.10;63.10;;;;;;5093930;28;20036;-83
2022/08/08 06:55:06;;;;;;;1.15;0.63;;;19.20;63.00;;;;;;5094492;28;20448;-82
2022/08/08 06:57:32;;;;;;;1.40;0.60;;;19.20;62.50;;;;;;5091438;28;20081;-81
2022/08/08 06:59:58;;;;;;;1.52;0.60;;;19.30;62.60;;;;;;5093609;28;20016;-82
2022/08/08 07:02:26;;;;;;;1.27;0.40;;;19.40;61.50;;;;;;5093019;28;20032;-83
2022/08/08 07:04:54;;;;;;;4.35;0.70;;;19.40;61.20;;;;;;5087431;28;20024;-79
2022/08/08 07:07:32;;;;;;;0.50;0.50;;;19.50;61.30;;;;;;5092884;28;20024;-79
2022/08/08 07:10:11;;;;;;;1.05;0.43;;;19.60;60.90;;;;;;5093566;28;20170;-79
2022/08/08 07:13:07;;;;;;;1.50;0.57;;;19.60;60.70;;;;;;5093429;28;20024;-84
2022/08/08 07:15:44;;;;;;;2.15;0.43;;;19.60;60.70;;;;;;5082211;28;20050;-78
2022/08/08 07:18:10;;;;;;;1.45;0.55;;;19.70;60.60;;;;;;5092665;28;20035;-78
2022/08/08 07:20:43;;;;;;;0.75;0.55;;;19.80;60.50;;;;;;5093982;28;20035;-78
2022/08/08 07:23:23;;;;;;;0.30;0.30;;;19.80;60.50;;;;;;5091698;28;20099;-80
2022/08/08 07:25:51;;;;;;;1.73;0.45;;;19.80;60.20;;;;;;5079184;28;20059;-78
2022/08/08 07:28:22;;;;;;;1.45;0.70;;;19.90;60.20;;;;;;5081576;28;20024;-78
2022/08/08 07:30:48;;;;;;;0.82;0.50;;;19.90;59.90;;;;;;5086744;28;20035;-78
2022/08/08 07:33:15;;;;;;;0.80;0.40;;;20.00;59.90;;;;;;5074869;28;20021;-79
2022/08/08 07:35:43;;;;;;;2.08;0.75;;;20.10;59.70;;;;;;5091987;28;20481;-78
2022/08/08 07:38:09;;;;;;;1.63;0.73;;;20.10;59.50;;;;;;5082085;28;20521;-84
2022/08/08 07:40:35;;;;;;;0.73;0.43;;;20.10;59.10;;;;;;5085594;28;20024;-80
2022/08/08 07:43:04;;;;;;;1.45;0.40;;;20.20;58.90;;;;;;5075295;28;20028;-81
2022/08/08 07:45:30;;;;;;;0.73;0.60;;;20.30;58.70;;;;;;5089722;28;20042;-82
2022/08/08 07:47:57;;;;;;;0.45;0.35;;;20.30;58.70;;;;;;5080269;28;20020;-85
2022/08/08 07:50:24;;;;;;;0.40;0.40;;;20.40;58.30;;;;;;5080912;28;20033;-83
2022/08/08 07:52:55;;;;;;;3.70;0.70;;;20.40;58.20;;;;;;5087605;28;20046;-85
2022/08/08 07:55:25;;;;;;;1.90;0.50;;;20.40;58.20;;;;;;5090377;28;20048;-86
2022/08/08 07:58:28;;;;;;;1.98;0.55;;;20.50;58.20;;;;;;5079506;28;20031;-86
2022/08/08 08:01:05;;;;;;;1.05;0.60;;;20.50;58.00;;;;;;5076892;28;20103;-87
2022/08/08 08:03:56;;;;;;;1.95;0.60;;;20.60;57.90;;;;;;5076438;28;20031;-86
2022/08/08 08:06:24;;;;;;;1.58;0.73;;;20.70;57.60;;;;;;5083289;28;20185;-84
2022/08/08 08:09:03;;;;;;;0.80;0.50;;;20.80;57.50;;;;;;5077318;28;20078;-84
2022/08/08 08:11:32;;;;;;;1.85;0.45;;;20.80;57.60;;;;;;5076423;28;20032;-83
2022/08/08 08:14:03;;;;;;;1.08;0.60;;;20.90;57.70;;;;;;5084603;28;20385;-83
2022/08/08 08:16:32;;;;;;;0.60;0.50;;;20.90;57.60;;;;;;5088626;28;20042;-84
2022/08/08 08:19:04;;;;;;;1.13;0.80;;;21.00;57.50;;;;;;5079950;28;20257;-80
2022/08/08 08:21:40;;;;;;;2.00;0.98;;;21.00;57.70;;;;;;5080169;28;20027;-82
2022/08/08 08:24:06;;;;;;;2.97;0.65;;;21.10;57.90;;;;;;5086696;28;20020;-83
2022/08/08 08:26:32;;;;;;;1.42;0.70;;;21.20;58.00;;;;;;5088832;28;20481;-83
2022/08/08 08:28:58;;;;;;;2.72;0.98;;;21.30;58.00;;;;;;5080027;28;20025;-83
2022/08/08 08:31:24;;;;;;;0.70;0.50;;;21.20;58.30;;;;;;5093349;28;20029;-82
2022/08/08 08:33:50;;;;;;;1.00;0.60;;;21.30;58.50;;;;;;5077578;28;20024;-80
2022/08/08 08:36:17;;;;;;;1.67;0.70;;;21.40;58.50;;;;;;5092931;28;20081;-81
2022/08/08 08:38:44;;;;;;;0.93;0.57;;;21.50;58.20;;;;;;5097342;28;20024;-82
2022/08/08 08:41:13;;;;;;;3.13;0.70;;;21.50;58.10;;;;;;5079976;28;20489;-81
2022/08/08 08:43:39;;;;;;;1.02;0.60;;;21.50;58.00;;;;;;5090713;28;20070;-82
2022/08/08 08:46:11;;;;;;;0.77;0.68;;;21.60;58.40;;;;;;5084178;28;20020;-82
2022/08/08 08:48:39;;;;;;;2.00;0.60;;;21.60;58.30;;;;;;5082543;28;20378;-83
2022/08/08 08:51:10;;;;;;;1.17;0.70;;;21.60;58.30;;;;;;5092028;28;20028;-82
2022/08/08 08:53:41;;;;;;;3.40;0.73;;;21.70;58.20;;;;;;5080367;28;20050;-81
2022/08/08 08:56:09;;;;;;;2.15;0.75;;;21.80;58.20;;;;;;5085825;28;20040;-83
2022/08/08 08:58:38;;;;;;;2.25;0.63;;;21.90;58.20;;;;;;5089718;28;20028;-79
2022/08/08 09:01:04;;;;;;;2.17;0.60;;;22.00;58.20;;;;;;5078162;28;20131;-84
2022/08/08 09:03:32;;;;;;;3.65;0.80;;;22.00;58.10;;;;;;5092416;28;20031;-81
2022/08/08 09:05:58;;;;;;;1.45;0.60;;;22.00;58.20;;;;;;5094453;28;20028;-79
2022/08/08 09:08:26;;;;;;;28.83;2.05;;;22.10;58.30;;;;;;5094094;28;20020;-78
2022/08/08 09:10:52;;;;;;;6.05;0.88;;;22.30;58.50;;;;;;5094746;28;20027;-79
2022/08/08 09:13:20;;;;;;;137.45;65.95;;;22.30;58.00;;;;;;5077134;28;20035;-76
2022/08/08 09:15:46;;;;;;;21.08;11.30;;;22.40;57.90;;;;;;5088112;28;20033;-80
2022/08/08 09:18:16;;;;;;;7.70;4.32;;;22.50;58.10;;;;;;5073868;28;20507;-76
2022/08/08 09:20:45;;;;;;;5.72;4.43;;;22.50;58.20;;;;;;5089880;28;20028;-85
2022/08/08 09:23:13;;;;;;;2.63;1.30;;;22.60;58.00;;;;;;5078439;28;20025;-82
2022/08/08 09:25:48;;;;;;;2.70;0.90;;;22.70;58.00;;;;;;5095330;28;20036;-82
2022/08/08 09:28:15;;;;;;;1.45;0.90;;;22.70;58.90;;;;;;5084594;28;20025;-83
2022/08/08 09:30:43;;;;;;;0.90;0.70;;;22.70;58.40;;;;;;5088998;28;20092;-81
2022/08/08 09:33:10;;;;;;;1.05;0.80;;;22.80;58.40;;;;;;5077932;28;20028;-84
2022/08/08 09:35:39;;;;;;;3.20;0.95;;;22.90;58.30;;;;;;5083206;28;20036;-84
2022/08/08 09:38:05;;;;;;;2.08;0.90;;;23.00;58.60;;;;;;5085495;28;20027;-82
2022/08/08 09:40:35;;;;;;;2.00;0.65;;;23.10;58.80;;;;;;5087300;28;20032;-79
2022/08/08 09:43:29;;;;;;;1.13;0.90;;;23.10;58.60;;;;;;5077223;28;20370;-84
2022/08/08 09:46:00;;;;;;;1.60;0.80;;;23.20;58.40;;;;;;5082187;28;20027;-80
2022/08/08 09:48:30;;;;;;;1.40;0.90;;;23.20;59.10;;;;;;5082899;28;20036;-84
2022/08/08 09:50:57;;;;;;;5.28;0.80;;;23.30;58.50;;;;;;5090669;28;20047;-82
2022/08/08 09:53:46;;;;;;;2.03;0.77;;;23.40;58.40;;;;;;5075296;28;20168;-82
2022/08/08 09:56:13;;;;;;;5.55;1.00;;;23.40;58.30;;;;;;5083395;28;20089;-82
2022/08/08 09:58:47;;;;;;;4.18;0.90;;;23.50;58.50;;;;;;5080999;28;20035;-80
2022/08/08 10:01:24;;;;;;;1.85;1.35;;;23.60;58.30;;;;;;5090681;28;20029;-83
2022/08/08 10:03:53;;;;;;;1.63;0.88;;;23.70;57.80;;;;;;5080881;28;20031;-83
2022/08/08 10:06:20;;;;;;;1.33;0.80;;;23.70;57.90;;;;;;5093791;28;20059;-80
2022/08/08 10:08:50;;;;;;;1.58;0.90;;;23.70;57.50;;;;;;5079931;28;20035;-84
2022/08/08 10:11:18;;;;;;;1.77;0.75;;;23.80;57.40;;;;;;5091552;28;20038;-82
2022/08/08 10:13:55;;;;;;;3.40;1.00;;;23.80;57.80;;;;;;5080177;28;20107;-79
2022/08/08 10:16:21;;;;;;;2.45;0.88;;;24.00;57.80;;;;;;5082384;28;20071;-81
2022/08/08 10:18:48;;;;;;;1.65;1.00;;;24.10;57.50;;;;;;5089113;28;20453;-81
2022/08/08 10:21:18;;;;;;;0.85;0.82;;;24.10;57.30;;;;;;5078137;28;20027;-82
2022/08/08 10:23:47;;;;;;;1.02;0.82;;;24.20;57.20;;;;;;5087769;28;20493;-82
2022/08/08 10:26:20;;;;;;;3.17;0.95;;;24.30;56.20;;;;;;5084450;28;20036;-83
2022/08/08 10:29:10;;;;;;;2.53;0.70;;;24.30;55.50;;;;;;5079797;28;20029;-82
2022/08/08 10:34:59;;;;;;;3.13;0.90;;;24.40;56.40;;;;;;5072019;28;20053;-81
2022/08/08 10:37:27;;;;;;;3.75;0.82;;;24.50;56.30;;;;;;5073890;28;20048;-90
2022/08/08 10:39:57;;;;;;;1.27;0.80;;;24.50;56.20;;;;;;5082353;28;20020;-80
2022/08/08 10:42:30;;;;;;;1.30;0.90;;;24.50;56.00;;;;;;5081187;28;20029;-78
2022/08/08 10:45:06;;;;;;;1.23;1.05;;;24.50;55.90;;;;;;5090469;28;20032;-81
2022/08/08 10:47:32;;;;;;;1.75;0.95;;;24.60;55.80;;;;;;5077489;28;20024;-81
2022/08/08 10:50:00;;;;;;;1.02;0.68;;;24.70;55.40;;;;;;5093337;28;20154;-80
2022/08/08 10:52:30;;;;;;;0.70;0.55;;;24.80;54.70;;;;;;5081400;28;20096;-82
2022/08/08 10:55:26;;;;;;;2.03;0.82;;;25.10;52.60;;;;;;5088566;28;20032;-79
2022/08/08 10:57:51;;;;;;;2.50;0.80;;;25.10;52.50;;;;;;5058452;28;20037;-79
2022/08/08 11:00:22;;;;;;;1.67;0.68;;;25.10;51.90;;;;;;5083361;28;20028;-79
2022/08/08 11:02:49;;;;;;;2.88;0.80;;;25.10;50.60;;;;;;5078455;28;20025;-85
2022/08/08 11:05:15;;;;;;;1.30;0.68;;;25.20;50.70;;;;;;5091363;28;20534;-85
2022/08/08 11:07:54;;;;;;;4.45;1.20;;;25.20;51.10;;;;;;5094488;28;20043;-78
2022/08/08 11:10:22;;;;;;;3.13;0.90;;;25.20;50.80;;;;;;5081789;28;20516;-80
2022/08/08 11:12:50;;;;;;;0.93;0.82;;;25.40;50.20;;;;;;5087660;28;20024;-78
2022/08/08 11:15:21;;;;;;;0.80;0.75;;;25.40;50.20;;;;;;5076403;28;20530;-79
2022/08/08 11:17:47;;;;;;;1.77;0.70;;;25.40;50.30;;;;;;5086322;28;20073;-79
2022/08/08 11:20:21;;;;;;;0.90;0.60;;;25.60;50.10;;;;;;5081916;28;20384;-80
2022/08/08 11:23:06;;;;;;;1.08;0.77;;;25.60;49.50;;;;;;5092688;28;20111;-81
2022/08/08 11:25:33;;;;;;;0.95;0.75;;;25.70;49.40;;;;;;5088739;28;20036;-78
2022/08/08 11:28:02;;;;;;;1.83;0.50;;;25.90;48.80;;;;;;5080621;28;20020;-80
2022/08/08 11:30:30;;;;;;;1.55;0.70;;;26.00;48.90;;;;;;5080678;28;20111;-80
2022/08/08 11:33:01;;;;;;;1.20;0.82;;;26.20;49.80;;;;;;5089692;28;20044;-80
2022/08/08 11:35:28;;;;;;;0.82;0.60;;;26.30;49.20;;;;;;5088487;28;20096;-80
2022/08/08 11:37:54;;;;;;;3.75;0.75;;;26.30;49.10;;;;;;5093908;28;20028;-82
2022/08/08 11:40:21;;;;;;;2.95;0.70;;;26.20;49.10;;;;;;5081278;28;20309;-82
2022/08/08 11:42:47;;;;;;;1.85;0.60;;;26.30;48.80;;;;;;5087297;28;20082;-83
2022/08/08 11:45:13;;;;;;;1.90;0.75;;;26.30;48.20;;;;;;5076543;28;20036;-85
2022/08/08 11:47:41;;;;;;;1.30;0.80;;;26.50;47.90;;;;;;5087555;28;20413;-85
2022/08/08 11:50:13;;;;;;;2.25;0.57;;;26.50;47.90;;;;;;5080544;28;20034;-86
2022/08/08 11:52:39;;;;;;;1.75;0.50;;;26.60;48.20;;;;;;5092885;28;20484;-85
2022/08/08 11:55:26;;;;;;;1.92;0.70;;;26.70;48.30;;;;;;5075331;28;20036;-86
2022/08/08 11:58:09;;;;;;;1.92;0.60;;;26.80;47.40;;;;;;5085063;28;20025;-78
2022/08/08 12:00:49;;;;;;;0.60;0.52;;;26.80;47.60;;;;;;5071878;28;20412;-78
2022/08/08 12:03:29;;;;;;;1.85;0.50;;;26.90;47.40;;;;;;5074347;28;20024;-78
2022/08/08 12:05:55;;;;;;;2.95;0.65;;;26.90;47.60;;;;;;5091745;28;20031;-78
2022/08/08 12:08:35;;;;;;;1.80;0.55;;;27.00;48.00;;;;;;5091446;28;20028;-79
2022/08/08 12:11:10;;;;;;;16.35;11.10;;;27.00;49.60;;;;;;5074535;28;20028;-78
2022/08/08 12:13:36;;;;;;;4.47;3.42;;;27.00;47.90;;;;;;5091576;28;20066;-77
2022/08/08 12:16:20;;;;;;;86.43;58.42;;;27.00;48.00;;;;;;5082585;28;20056;-79
2022/08/08 12:18:50;;;;;;;16.10;12.93;;;27.10;47.70;;;;;;5073478;28;20076;-84
2022/08/08 12:21:22;;;;;;;7.40;3.90;;;27.30;47.80;;;;;;5088716;28;20028;-85
2022/08/08 12:23:49;;;;;;;1.70;1.58;;;27.40;47.10;;;;;;5078695;28;20024;-84
2022/08/08 12:26:19;;;;;;;4.40;1.08;;;27.50;47.00;;;;;;5081642;28;20044;-83
2022/08/08 12:28:56;;;;;;;0.80;0.80;;;27.40;46.50;;;;;;5086646;28;20040;-83
2022/08/08 12:31:35;;;;;;;3.67;0.90;;;27.40;46.80;;;;;;5075103;28;20024;-81
2022/08/08 12:34:01;;;;;;;1.00;0.60;;;27.50;46.60;;;;;;5092735;28;20093;-82
2022/08/08 12:36:41;;;;;;;2.80;0.90;;;27.50;46.50;;;;;;5092089;28;20028;-81
2022/08/08 12:39:08;;;;;;;3.50;1.10;;;27.70;46.90;;;;;;5076035;28;20021;-85
2022/08/08 12:41:35;;;;;;;1.95;0.80;;;27.70;46.70;;;;;;5087619;28;20021;-85
2022/08/08 12:44:28;;;;;;;1.75;0.65;;;27.70;46.00;;;;;;5079785;28;20057;-85
2022/08/08 12:46:58;;;;;;;0.70;0.70;;;27.70;44.10;;;;;;5076347;28;20027;-83
2022/08/08 12:49:30;;;;;;;1.85;0.40;;;27.70;44.90;;;;;;5089574;28;20052;-84
2022/08/08 12:51:57;;;;;;;1.52;0.60;;;28.10;44.40;;;;;;5079826;28;20107;-85
2022/08/08 12:54:26;;;;;;;0.98;0.60;;;28.20;44.30;;;;;;5080154;28;20472;-81
2022/08/08 12:56:51;;;;;;;1.08;0.60;;;28.30;44.20;;;;;;5088299;28;20114;-81
2022/08/08 12:59:21;;;;;;;0.80;0.63;;;28.40;44.20;;;;;;5090386;28;20436;-81
2022/08/08 13:01:55;;;;;;;1.25;0.60;;;28.50;44.00;;;;;;5082505;28;20016;-82
2022/08/08 13:04:26;;;;;;;0.77;0.50;;;28.50;43.70;;;;;;5089464;28;20032;-86
2022/08/08 13:07:02;;;;;;;2.90;0.63;;;28.50;43.90;;;;;;5096009;28;20111;-85
2022/08/08 13:09:34;;;;;;;2.22;0.70;;;28.60;43.90;;;;;;5096896;28;20028;-85
2022/08/08 13:12:00;;;;;;;1.92;0.60;;;28.90;44.10;;;;;;5087755;28;20024;-85
2022/08/08 13:14:57;;;;;;;1.02;0.70;;;29.20;43.70;;;;;;5088376;28;20465;-85
2022/08/08 13:17:27;;;;;;;1.02;0.50;;;29.50;42.90;;;;;;5075499;28;20044;-85
2022/08/08 13:19:54;;;;;;;1.27;0.95;;;29.60;43.00;;;;;;5083661;28;20016;-85
2022/08/08 13:22:20;;;;;;;0.82;0.52;;;30.00;43.00;;;;;;5083893;28;20029;-85
2022/08/08 13:24:46;;;;;;;0.40;0.40;;;30.20;42.00;;;;;;5089450;28;20032;-85
2022/08/08 13:27:17;;;;;;;2.47;0.50;;;30.40;41.80;;;;;;5079318;28;20354;-86
2022/08/08 13:30:04;;;;;;;1.90;0.43;;;30.50;41.20;;;;;;5090662;28;20028;-85
2022/08/08 13:32:36;;;;;;;1.73;0.68;;;30.80;40.90;;;;;;5088754;28;20032;-85
2022/08/08 13:35:08;;;;;;;0.90;0.60;;;31.30;40.90;;;;;;5089046;28;20511;-85